sensor_id;sensor_type;location;lat;lon;timestamp;P1;durP1;ratioP1;P2;durP2;ratioP2
67193;SDS011;54121;53.508;49.422;2022-12-20T00:01:37;9.50;;;4.95;;
67193;SDS011;54121;53.508;49.422;2022-12-20T00:04:04;12.43;;;4.47;;
67193;SDS011;54121;53.508;49.422;2022-12-20T00:06:32;9.10;;;5.03;;
67193;SDS011;54121;53.508;49.422;2022-12-20T00:09:00;9.10;;;4.35;;
67193;SDS011;54121;53.508;49.422;2022-12-20T00:11:31;9.57;;;4.83;;
67193;SDS011;54121;53.508;49.422;2022-12-20T00:13:57;7.80;;;4.13;;
67193;SDS011;54121;53.508;49.422;2022-12-20T00:16:25;6.78;;;3.92;;
67193;SDS011;54121;53.508;49.422;2022-12-20T00:18:53;7.63;;;4.05;;
67193;SDS011;54121;53.508;49.422;2022-12-20T00:21:24;11.50;;;4.82;;
67193;SDS011;54121;53.508;49.422;2022-12-20T00:23:52;8.23;;;4.88;;
67193;SDS011;54121;53.508;49.422;2022-12-20T00:26:20;9.75;;;5.47;;
67193;SDS011;54121;53.508;49.422;2022-12-20T00:28:49;10.75;;;6.03;;
67193;SDS011;54121;53.508;49.422;2022-12-20T00:31:16;13.30;;;6.53;;
67193;SDS011;54121;53.508;49.422;2022-12-20T00:33:45;10.50;;;5.28;;
67193;SDS011;54121;53.508;49.422;2022-12-20T00:36:13;10.32;;;5.60;;
67193;SDS011;54121;53.508;49.422;2022-12-20T00:38:45;13.43;;;5.47;;
67193;SDS011;54121;53.508;49.422;2022-12-20T00:41:17;8.52;;;5.00;;
67193;SDS011;54121;53.508;49.422;2022-12-20T00:43:45;8.77;;;4.93;;
67193;SDS011;54121;53.508;49.422;2022-12-20T00:46:13;10.60;;;4.80;;
67193;SDS011;54121;53.508;49.422;2022-12-20T00:48:40;13.07;;;5.45;;
67193;SDS011;54121;53.508;49.422;2022-12-20T00:51:11;11.50;;;5.20;;
67193;SDS011;54121;53.508;49.422;2022-12-20T00:53:39;13.35;;;4.68;;
67193;SDS011;54121;53.508;49.422;2022-12-20T00:56:07;10.02;;;4.97;;
67193;SDS011;54121;53.508;49.422;2022-12-20T00:58:35;17.95;;;5.72;;
67193;SDS011;54121;53.508;49.422;2022-12-20T01:01:03;11.00;;;5.70;;
67193;SDS011;54121;53.508;49.422;2022-12-20T01:03:31;11.70;;;5.53;;
67193;SDS011;54121;53.508;49.422;2022-12-20T01:05:58;11.73;;;5.88;;
67193;SDS011;54121;53.508;49.422;2022-12-20T01:08:27;10.90;;;5.18;;
67193;SDS011;54121;53.508;49.422;2022-12-20T01:11:05;10.07;;;5.63;;
67193;SDS011;54121;53.508;49.422;2022-12-20T01:13:34;12.00;;;5.03;;
67193;SDS011;54121;53.508;49.422;2022-12-20T01:16:05;10.80;;;5.65;;
67193;SDS011;54121;53.508;49.422;2022-12-20T01:18:33;10.20;;;5.63;;
67193;SDS011;54121;53.508;49.422;2022-12-20T01:21:04;11.63;;;6.00;;
67193;SDS011;54121;53.508;49.422;2022-12-20T01:23:32;10.93;;;5.80;;
67193;SDS011;54121;53.508;49.422;2022-12-20T01:26:00;13.75;;;6.25;;
67193;SDS011;54121;53.508;49.422;2022-12-20T01:28:29;16.02;;;5.78;;
67193;SDS011;54121;53.508;49.422;2022-12-20T01:30:56;12.85;;;5.75;;
67193;SDS011;54121;53.508;49.422;2022-12-20T01:33:23;13.00;;;6.05;;
67193;SDS011;54121;53.508;49.422;2022-12-20T01:35:56;15.68;;;7.07;;
67193;SDS011;54121;53.508;49.422;2022-12-20T01:38:24;11.70;;;6.38;;
67193;SDS011;54121;53.508;49.422;2022-12-20T01:40:52;15.43;;;6.82;;
67193;SDS011;54121;53.508;49.422;2022-12-20T01:43:19;13.02;;;5.97;;
67193;SDS011;54121;53.508;49.422;2022-12-20T01:45:47;14.40;;;6.00;;
67193;SDS011;54121;53.508;49.422;2022-12-20T01:48:15;13.85;;;6.10;;
67193;SDS011;54121;53.508;49.422;2022-12-20T01:50:46;13.35;;;5.88;;
67193;SDS011;54121;53.508;49.422;2022-12-20T01:53:15;10.63;;;5.85;;
67193;SDS011;54121;53.508;49.422;2022-12-20T01:55:46;13.07;;;6.15;;
67193;SDS011;54121;53.508;49.422;2022-12-20T01:58:13;15.30;;;5.70;;
67193;SDS011;54121;53.508;49.422;2022-12-20T02:00:42;12.15;;;6.82;;
67193;SDS011;54121;53.508;49.422;2022-12-20T02:03:09;12.95;;;5.95;;
67193;SDS011;54121;53.508;49.422;2022-12-20T02:05:39;14.38;;;5.85;;
67193;SDS011;54121;53.508;49.422;2022-12-20T02:08:10;15.38;;;5.80;;
67193;SDS011;54121;53.508;49.422;2022-12-20T02:10:43;15.15;;;6.18;;
67193;SDS011;54121;53.508;49.422;2022-12-20T02:13:27;14.80;;;6.82;;
67193;SDS011;54121;53.508;49.422;2022-12-20T02:15:59;13.05;;;6.63;;
67193;SDS011;54121;53.508;49.422;2022-12-20T02:32:20;14.43;;;6.18;;
67193;SDS011;54121;53.508;49.422;2022-12-20T02:35:01;13.05;;;6.10;;
67193;SDS011;54121;53.508;49.422;2022-12-20T02:37:29;13.55;;;5.85;;
67193;SDS011;54121;53.508;49.422;2022-12-20T02:39:56;12.60;;;6.40;;
67193;SDS011;54121;53.508;49.422;2022-12-20T02:42:22;14.00;;;6.15;;
67193;SDS011;54121;53.508;49.422;2022-12-20T02:44:53;12.02;;;5.70;;
67193;SDS011;54121;53.508;49.422;2022-12-20T02:47:55;16.35;;;6.30;;
67193;SDS011;54121;53.508;49.422;2022-12-20T02:50:27;11.80;;;5.20;;
67193;SDS011;54121;53.508;49.422;2022-12-20T02:52:56;10.27;;;5.38;;
67193;SDS011;54121;53.508;49.422;2022-12-20T02:55:28;15.25;;;6.38;;
67193;SDS011;54121;53.508;49.422;2022-12-20T02:58:28;11.07;;;6.13;;
67193;SDS011;54121;53.508;49.422;2022-12-20T03:01:06;13.27;;;6.82;;
67193;SDS011;54121;53.508;49.422;2022-12-20T03:03:37;15.57;;;5.72;;
67193;SDS011;54121;53.508;49.422;2022-12-20T03:06:04;15.30;;;6.95;;
67193;SDS011;54121;53.508;49.422;2022-12-20T03:08:31;14.13;;;6.85;;
67193;SDS011;54121;53.508;49.422;2022-12-20T03:10:57;11.45;;;6.07;;
67193;SDS011;54121;53.508;49.422;2022-12-20T03:13:24;13.95;;;6.25;;
67193;SDS011;54121;53.508;49.422;2022-12-20T03:15:51;13.88;;;6.07;;
67193;SDS011;54121;53.508;49.422;2022-12-20T03:18:17;11.80;;;6.50;;
67193;SDS011;54121;53.508;49.422;2022-12-20T03:20:44;19.02;;;7.78;;
67193;SDS011;54121;53.508;49.422;2022-12-20T03:23:10;14.85;;;6.55;;
67193;SDS011;54121;53.508;49.422;2022-12-20T03:25:37;19.00;;;6.05;;
67193;SDS011;54121;53.508;49.422;2022-12-20T03:28:04;14.38;;;6.53;;
67193;SDS011;54121;53.508;49.422;2022-12-20T03:30:30;14.32;;;5.38;;
67193;SDS011;54121;53.508;49.422;2022-12-20T03:32:57;13.63;;;5.90;;
67193;SDS011;54121;53.508;49.422;2022-12-20T03:35:23;20.10;;;6.28;;
67193;SDS011;54121;53.508;49.422;2022-12-20T03:37:50;14.70;;;6.43;;
67193;SDS011;54121;53.508;49.422;2022-12-20T03:40:16;13.80;;;6.47;;
67193;SDS011;54121;53.508;49.422;2022-12-20T03:42:43;13.35;;;5.07;;
67193;SDS011;54121;53.508;49.422;2022-12-20T03:45:09;17.08;;;6.43;;
67193;SDS011;54121;53.508;49.422;2022-12-20T03:47:36;16.48;;;6.88;;
67193;SDS011;54121;53.508;49.422;2022-12-20T03:50:03;15.82;;;6.57;;
67193;SDS011;54121;53.508;49.422;2022-12-20T03:52:30;18.08;;;7.45;;
67193;SDS011;54121;53.508;49.422;2022-12-20T03:54:57;12.77;;;5.55;;
67193;SDS011;54121;53.508;49.422;2022-12-20T03:57:23;18.60;;;5.90;;
67193;SDS011;54121;53.508;49.422;2022-12-20T03:59:50;23.13;;;8.32;;
67193;SDS011;54121;53.508;49.422;2022-12-20T04:02:16;13.27;;;6.32;;
67193;SDS011;54121;53.508;49.422;2022-12-20T04:04:43;12.90;;;6.18;;
67193;SDS011;54121;53.508;49.422;2022-12-20T04:07:09;12.07;;;6.15;;
67193;SDS011;54121;53.508;49.422;2022-12-20T04:09:36;22.00;;;6.70;;
67193;SDS011;54121;53.508;49.422;2022-12-20T04:12:02;12.60;;;5.55;;
67193;SDS011;54121;53.508;49.422;2022-12-20T04:14:29;15.50;;;6.38;;
67193;SDS011;54121;53.508;49.422;2022-12-20T04:16:55;15.65;;;6.85;;
67193;SDS011;54121;53.508;49.422;2022-12-20T04:19:22;12.32;;;5.78;;
67193;SDS011;54121;53.508;49.422;2022-12-20T04:21:49;11.95;;;6.25;;
67193;SDS011;54121;53.508;49.422;2022-12-20T04:24:18;12.93;;;5.15;;
67193;SDS011;54121;53.508;49.422;2022-12-20T04:26:44;13.65;;;6.63;;
67193;SDS011;54121;53.508;49.422;2022-12-20T04:29:11;13.07;;;6.38;;
67193;SDS011;54121;53.508;49.422;2022-12-20T04:31:37;17.00;;;7.10;;
67193;SDS011;54121;53.508;49.422;2022-12-20T04:34:04;14.35;;;6.65;;
67193;SDS011;54121;53.508;49.422;2022-12-20T04:36:30;13.77;;;6.75;;
67193;SDS011;54121;53.508;49.422;2022-12-20T04:38:57;14.18;;;6.78;;
67193;SDS011;54121;53.508;49.422;2022-12-20T04:41:23;13.05;;;7.30;;
67193;SDS011;54121;53.508;49.422;2022-12-20T04:43:52;14.30;;;7.22;;
67193;SDS011;54121;53.508;49.422;2022-12-20T04:46:20;14.02;;;6.10;;
67193;SDS011;54121;53.508;49.422;2022-12-20T04:48:48;16.77;;;6.82;;
67193;SDS011;54121;53.508;49.422;2022-12-20T04:51:14;13.48;;;7.25;;
67193;SDS011;54121;53.508;49.422;2022-12-20T04:53:41;16.15;;;7.45;;
67193;SDS011;54121;53.508;49.422;2022-12-20T04:56:15;13.45;;;7.50;;
67193;SDS011;54121;53.508;49.422;2022-12-20T04:58:54;13.90;;;7.15;;
67193;SDS011;54121;53.508;49.422;2022-12-20T05:01:22;15.02;;;7.60;;
67193;SDS011;54121;53.508;49.422;2022-12-20T05:03:48;14.20;;;6.82;;
67193;SDS011;54121;53.508;49.422;2022-12-20T05:06:15;14.73;;;6.93;;
67193;SDS011;54121;53.508;49.422;2022-12-20T05:08:42;16.75;;;7.28;;
67193;SDS011;54121;53.508;49.422;2022-12-20T05:11:09;13.07;;;6.60;;
67193;SDS011;54121;53.508;49.422;2022-12-20T05:13:36;12.63;;;6.13;;
67193;SDS011;54121;53.508;49.422;2022-12-20T05:16:02;11.10;;;6.57;;
67193;SDS011;54121;53.508;49.422;2022-12-20T05:18:29;11.63;;;6.43;;
67193;SDS011;54121;53.508;49.422;2022-12-20T05:20:59;13.80;;;7.10;;
67193;SDS011;54121;53.508;49.422;2022-12-20T05:23:45;12.80;;;6.63;;
67193;SDS011;54121;53.508;49.422;2022-12-20T05:26:32;16.70;;;6.60;;
67193;SDS011;54121;53.508;49.422;2022-12-20T05:31:27;14.15;;;6.63;;
67193;SDS011;54121;53.508;49.422;2022-12-20T05:33:54;15.93;;;6.43;;
67193;SDS011;54121;53.508;49.422;2022-12-20T05:36:21;14.98;;;7.53;;
67193;SDS011;54121;53.508;49.422;2022-12-20T05:38:47;13.20;;;6.78;;
67193;SDS011;54121;53.508;49.422;2022-12-20T05:41:14;13.88;;;7.15;;
67193;SDS011;54121;53.508;49.422;2022-12-20T05:43:41;15.30;;;6.28;;
67193;SDS011;54121;53.508;49.422;2022-12-20T05:46:07;12.95;;;6.88;;
67193;SDS011;54121;53.508;49.422;2022-12-20T05:48:35;11.60;;;6.30;;
67193;SDS011;54121;53.508;49.422;2022-12-20T05:51:01;12.93;;;7.07;;
67193;SDS011;54121;53.508;49.422;2022-12-20T05:53:29;15.48;;;6.53;;
67193;SDS011;54121;53.508;49.422;2022-12-20T05:55:55;17.10;;;7.28;;
67193;SDS011;54121;53.508;49.422;2022-12-20T05:58:22;11.82;;;6.32;;
67193;SDS011;54121;53.508;49.422;2022-12-20T06:00:48;14.45;;;7.53;;
67193;SDS011;54121;53.508;49.422;2022-12-20T06:03:15;14.90;;;7.22;;
67193;SDS011;54121;53.508;49.422;2022-12-20T06:05:41;17.17;;;7.80;;
67193;SDS011;54121;53.508;49.422;2022-12-20T06:08:09;13.90;;;7.10;;
67193;SDS011;54121;53.508;49.422;2022-12-20T06:10:36;14.50;;;7.22;;
67193;SDS011;54121;53.508;49.422;2022-12-20T06:13:06;11.52;;;7.60;;
67193;SDS011;54121;53.508;49.422;2022-12-20T06:15:33;13.35;;;6.82;;
67193;SDS011;54121;53.508;49.422;2022-12-20T06:18:00;12.93;;;6.72;;
67193;SDS011;54121;53.508;49.422;2022-12-20T06:20:26;12.60;;;7.28;;
67193;SDS011;54121;53.508;49.422;2022-12-20T06:22:53;19.13;;;7.65;;
67193;SDS011;54121;53.508;49.422;2022-12-20T06:25:19;12.48;;;6.93;;
67193;SDS011;54121;53.508;49.422;2022-12-20T06:27:46;13.70;;;6.97;;
67193;SDS011;54121;53.508;49.422;2022-12-20T06:30:12;9.40;;;5.53;;
67193;SDS011;54121;53.508;49.422;2022-12-20T06:32:39;12.00;;;5.80;;
67193;SDS011;54121;53.508;49.422;2022-12-20T06:35:06;9.75;;;5.60;;
67193;SDS011;54121;53.508;49.422;2022-12-20T06:37:33;14.57;;;7.80;;
67193;SDS011;54121;53.508;49.422;2022-12-20T06:40:01;11.32;;;6.43;;
67193;SDS011;54121;53.508;49.422;2022-12-20T06:42:29;11.52;;;5.95;;
67193;SDS011;54121;53.508;49.422;2022-12-20T06:44:55;10.50;;;6.28;;
67193;SDS011;54121;53.508;49.422;2022-12-20T06:47:21;12.55;;;7.30;;
67193;SDS011;54121;53.508;49.422;2022-12-20T06:49:48;12.50;;;7.85;;
67193;SDS011;54121;53.508;49.422;2022-12-20T06:52:14;16.70;;;7.40;;
67193;SDS011;54121;53.508;49.422;2022-12-20T06:54:41;13.43;;;6.75;;
67193;SDS011;54121;53.508;49.422;2022-12-20T06:57:07;49.65;;;8.27;;
67193;SDS011;54121;53.508;49.422;2022-12-20T06:59:34;12.38;;;6.82;;
67193;SDS011;54121;53.508;49.422;2022-12-20T07:02:00;11.45;;;6.63;;
67193;SDS011;54121;53.508;49.422;2022-12-20T07:04:27;11.38;;;6.82;;
67193;SDS011;54121;53.508;49.422;2022-12-20T07:06:53;11.10;;;6.68;;
67193;SDS011;54121;53.508;49.422;2022-12-20T07:09:21;11.43;;;6.60;;
67193;SDS011;54121;53.508;49.422;2022-12-20T07:11:48;11.73;;;6.47;;
67193;SDS011;54121;53.508;49.422;2022-12-20T07:14:15;12.00;;;5.93;;
67193;SDS011;54121;53.508;49.422;2022-12-20T07:16:41;12.43;;;6.30;;
67193;SDS011;54121;53.508;49.422;2022-12-20T07:19:11;10.27;;;6.72;;
67193;SDS011;54121;53.508;49.422;2022-12-20T07:21:38;11.40;;;5.97;;
67193;SDS011;54121;53.508;49.422;2022-12-20T07:24:05;10.20;;;5.05;;
67193;SDS011;54121;53.508;49.422;2022-12-20T07:26:32;7.10;;;4.75;;
67193;SDS011;54121;53.508;49.422;2022-12-20T07:28:59;8.32;;;5.00;;
67193;SDS011;54121;53.508;49.422;2022-12-20T07:31:25;9.75;;;6.03;;
67193;SDS011;54121;53.508;49.422;2022-12-20T07:33:52;8.68;;;4.53;;
67193;SDS011;54121;53.508;49.422;2022-12-20T07:36:18;7.72;;;4.50;;
67193;SDS011;54121;53.508;49.422;2022-12-20T07:38:45;9.15;;;5.10;;
67193;SDS011;54121;53.508;49.422;2022-12-20T07:41:12;9.27;;;5.68;;
67193;SDS011;54121;53.508;49.422;2022-12-20T07:43:41;11.63;;;6.32;;
67193;SDS011;54121;53.508;49.422;2022-12-20T07:46:08;7.13;;;3.97;;
67193;SDS011;54121;53.508;49.422;2022-12-20T07:48:37;9.25;;;5.45;;
67193;SDS011;54121;53.508;49.422;2022-12-20T07:51:14;8.55;;;5.40;;
67193;SDS011;54121;53.508;49.422;2022-12-20T07:53:49;8.68;;;5.53;;
67193;SDS011;54121;53.508;49.422;2022-12-20T07:56:26;9.73;;;5.20;;
67193;SDS011;54121;53.508;49.422;2022-12-20T07:58:54;9.90;;;6.32;;
67193;SDS011;54121;53.508;49.422;2022-12-20T08:01:24;8.57;;;5.82;;
67193;SDS011;54121;53.508;49.422;2022-12-20T08:03:52;8.82;;;5.07;;
67193;SDS011;54121;53.508;49.422;2022-12-20T08:06:27;12.77;;;6.32;;
67193;SDS011;54121;53.508;49.422;2022-12-20T08:08:55;10.85;;;5.97;;
67193;SDS011;54121;53.508;49.422;2022-12-20T08:11:25;10.38;;;6.80;;
67193;SDS011;54121;53.508;49.422;2022-12-20T08:13:54;10.70;;;6.10;;
67193;SDS011;54121;53.508;49.422;2022-12-20T08:16:21;8.50;;;6.00;;
67193;SDS011;54121;53.508;49.422;2022-12-20T08:18:47;11.05;;;5.63;;
67193;SDS011;54121;53.508;49.422;2022-12-20T08:21:14;17.58;;;6.25;;
67193;SDS011;54121;53.508;49.422;2022-12-20T08:23:40;12.70;;;6.35;;
67193;SDS011;54121;53.508;49.422;2022-12-20T08:26:07;11.38;;;6.65;;
67193;SDS011;54121;53.508;49.422;2022-12-20T08:28:34;15.73;;;6.80;;
67193;SDS011;54121;53.508;49.422;2022-12-20T08:31:01;10.75;;;7.18;;
67193;SDS011;54121;53.508;49.422;2022-12-20T08:33:29;10.40;;;6.38;;
67193;SDS011;54121;53.508;49.422;2022-12-20T08:36:00;11.88;;;7.53;;
67193;SDS011;54121;53.508;49.422;2022-12-20T08:38:29;8.68;;;6.13;;
67193;SDS011;54121;53.508;49.422;2022-12-20T08:41:29;10.80;;;6.90;;
67193;SDS011;54121;53.508;49.422;2022-12-20T08:43:49;9.60;;;6.22;;
67193;SDS011;54121;53.508;49.422;2022-12-20T08:46:16;8.95;;;6.00;;
67193;SDS011;54121;53.508;49.422;2022-12-20T08:48:43;7.57;;;5.43;;
67193;SDS011;54121;53.508;49.422;2022-12-20T08:51:09;10.25;;;6.47;;
67193;SDS011;54121;53.508;49.422;2022-12-20T08:53:37;10.05;;;6.70;;
67193;SDS011;54121;53.508;49.422;2022-12-20T08:58:38;12.55;;;6.40;;
67193;SDS011;54121;53.508;49.422;2022-12-20T09:01:06;10.80;;;6.80;;
67193;SDS011;54121;53.508;49.422;2022-12-20T09:03:35;12.32;;;6.47;;
67193;SDS011;54121;53.508;49.422;2022-12-20T09:06:09;9.88;;;6.10;;
67193;SDS011;54121;53.508;49.422;2022-12-20T09:08:41;12.00;;;6.82;;
67193;SDS011;54121;53.508;49.422;2022-12-20T09:11:09;12.20;;;6.88;;
67193;SDS011;54121;53.508;49.422;2022-12-20T09:13:41;14.48;;;7.32;;
67193;SDS011;54121;53.508;49.422;2022-12-20T09:16:09;10.48;;;6.78;;
67193;SDS011;54121;53.508;49.422;2022-12-20T09:18:37;11.23;;;7.88;;
67193;SDS011;54121;53.508;49.422;2022-12-20T09:21:05;12.13;;;7.30;;
67193;SDS011;54121;53.508;49.422;2022-12-20T09:23:32;13.40;;;7.03;;
67193;SDS011;54121;53.508;49.422;2022-12-20T09:26:00;11.70;;;7.47;;
67193;SDS011;54121;53.508;49.422;2022-12-20T09:28:31;10.95;;;6.55;;
67193;SDS011;54121;53.508;49.422;2022-12-20T09:30:59;9.90;;;6.47;;
67193;SDS011;54121;53.508;49.422;2022-12-20T09:33:27;12.32;;;7.32;;
67193;SDS011;54121;53.508;49.422;2022-12-20T09:35:56;11.73;;;6.95;;
67193;SDS011;54121;53.508;49.422;2022-12-20T09:38:23;10.20;;;6.22;;
67193;SDS011;54121;53.508;49.422;2022-12-20T09:40:53;12.85;;;7.03;;
67193;SDS011;54121;53.508;49.422;2022-12-20T09:43:21;9.40;;;6.13;;
67193;SDS011;54121;53.508;49.422;2022-12-20T09:45:50;13.35;;;7.80;;
67193;SDS011;54121;53.508;49.422;2022-12-20T09:48:21;11.82;;;6.72;;
67193;SDS011;54121;53.508;49.422;2022-12-20T09:56:39;11.18;;;6.35;;
67193;SDS011;54121;53.508;49.422;2022-12-20T09:59:12;11.50;;;6.95;;
67193;SDS011;54121;53.508;49.422;2022-12-20T10:01:44;10.57;;;6.07;;
67193;SDS011;54121;53.508;49.422;2022-12-20T10:04:16;15.65;;;7.95;;
67193;SDS011;54121;53.508;49.422;2022-12-20T10:06:58;14.45;;;8.63;;
67193;SDS011;54121;53.508;49.422;2022-12-20T10:24:11;12.48;;;6.75;;
67193;SDS011;54121;53.508;49.422;2022-12-20T10:26:50;13.27;;;8.25;;
67193;SDS011;54121;53.508;49.422;2022-12-20T10:29:17;12.27;;;7.03;;
67193;SDS011;54121;53.508;49.422;2022-12-20T10:31:48;11.82;;;7.72;;
67193;SDS011;54121;53.508;49.422;2022-12-20T10:34:20;16.05;;;9.35;;
67193;SDS011;54121;53.508;49.422;2022-12-20T10:36:48;12.82;;;6.63;;
67193;SDS011;54121;53.508;49.422;2022-12-20T10:39:41;10.63;;;5.43;;
67193;SDS011;54121;53.508;49.422;2022-12-20T10:47:44;15.30;;;8.13;;
67193;SDS011;54121;53.508;49.422;2022-12-20T10:50:15;12.60;;;6.90;;
67193;SDS011;54121;53.508;49.422;2022-12-20T10:53:04;10.63;;;5.35;;
67193;SDS011;54121;53.508;49.422;2022-12-20T10:55:47;11.65;;;7.03;;
67193;SDS011;54121;53.508;49.422;2022-12-20T11:01:04;9.18;;;5.30;;
67193;SDS011;54121;53.508;49.422;2022-12-20T11:06:26;10.13;;;5.88;;
67193;SDS011;54121;53.508;49.422;2022-12-20T11:09:13;11.32;;;7.03;;
67193;SDS011;54121;53.508;49.422;2022-12-20T11:12:00;11.75;;;6.72;;
67193;SDS011;54121;53.508;49.422;2022-12-20T11:14:29;11.43;;;7.30;;
67193;SDS011;54121;53.508;49.422;2022-12-20T11:17:00;13.98;;;7.75;;
67193;SDS011;54121;53.508;49.422;2022-12-20T11:22:26;13.45;;;6.20;;
67193;SDS011;54121;53.508;49.422;2022-12-20T11:25:10;13.35;;;7.72;;
67193;SDS011;54121;53.508;49.422;2022-12-20T11:36:54;12.13;;;6.35;;
67193;SDS011;54121;53.508;49.422;2022-12-20T11:42:34;13.85;;;6.78;;
67193;SDS011;54121;53.508;49.422;2022-12-20T11:45:22;13.55;;;8.23;;
67193;SDS011;54121;53.508;49.422;2022-12-20T11:48:13;13.95;;;7.78;;
67193;SDS011;54121;53.508;49.422;2022-12-20T11:51:03;11.93;;;7.35;;
67193;SDS011;54121;53.508;49.422;2022-12-20T11:56:39;13.32;;;7.57;;
67193;SDS011;54121;53.508;49.422;2022-12-20T12:01:49;11.07;;;6.78;;
67193;SDS011;54121;53.508;49.422;2022-12-20T12:04:44;13.93;;;6.28;;
67193;SDS011;54121;53.508;49.422;2022-12-20T12:07:27;14.68;;;7.57;;
67193;SDS011;54121;53.508;49.422;2022-12-20T12:12:39;17.42;;;10.38;;
67193;SDS011;54121;53.508;49.422;2022-12-20T12:23:24;18.57;;;12.13;;
67193;SDS011;54121;53.508;49.422;2022-12-20T12:25:54;15.32;;;9.93;;
67193;SDS011;54121;53.508;49.422;2022-12-20T12:28:22;16.08;;;8.80;;
67193;SDS011;54121;53.508;49.422;2022-12-20T12:31:09;14.50;;;8.65;;
67193;SDS011;54121;53.508;49.422;2022-12-20T12:33:44;17.55;;;9.32;;
67193;SDS011;54121;53.508;49.422;2022-12-20T12:47:36;16.10;;;9.10;;
67193;SDS011;54121;53.508;49.422;2022-12-20T12:50:23;13.25;;;7.65;;
67193;SDS011;54121;53.508;49.422;2022-12-20T12:55:34;17.42;;;8.88;;
67193;SDS011;54121;53.508;49.422;2022-12-20T12:58:14;17.13;;;9.13;;
67193;SDS011;54121;53.508;49.422;2022-12-20T13:03:41;15.23;;;8.43;;
67193;SDS011;54121;53.508;49.422;2022-12-20T13:16:49;15.38;;;9.07;;
67193;SDS011;54121;53.508;49.422;2022-12-20T13:21:55;14.00;;;8.27;;
67193;SDS011;54121;53.508;49.422;2022-12-20T13:45:47;15.52;;;8.43;;
67193;SDS011;54121;53.508;49.422;2022-12-20T13:48:32;21.40;;;12.35;;
67193;SDS011;54121;53.508;49.422;2022-12-20T13:51:22;11.10;;;7.22;;
67193;SDS011;54121;53.508;49.422;2022-12-20T13:59:30;16.70;;;8.77;;
67193;SDS011;54121;53.508;49.422;2022-12-20T14:02:02;14.55;;;7.78;;
67193;SDS011;54121;53.508;49.422;2022-12-20T14:04:43;16.33;;;8.48;;
67193;SDS011;54121;53.508;49.422;2022-12-20T14:07:12;21.70;;;9.90;;
67193;SDS011;54121;53.508;49.422;2022-12-20T14:09:54;16.05;;;8.30;;
67193;SDS011;54121;53.508;49.422;2022-12-20T14:12:24;17.10;;;8.35;;
67193;SDS011;54121;53.508;49.422;2022-12-20T14:14:51;21.27;;;10.98;;
67193;SDS011;54121;53.508;49.422;2022-12-20T14:17:26;15.88;;;8.85;;
67193;SDS011;54121;53.508;49.422;2022-12-20T14:20:14;17.30;;;9.13;;
67193;SDS011;54121;53.508;49.422;2022-12-20T14:22:49;16.40;;;9.75;;
67193;SDS011;54121;53.508;49.422;2022-12-20T14:31:03;17.65;;;10.43;;
67193;SDS011;54121;53.508;49.422;2022-12-20T14:33:35;15.05;;;8.48;;
67193;SDS011;54121;53.508;49.422;2022-12-20T14:36:07;22.73;;;10.60;;
67193;SDS011;54121;53.508;49.422;2022-12-20T14:38:40;16.48;;;8.95;;
67193;SDS011;54121;53.508;49.422;2022-12-20T14:41:56;19.65;;;9.43;;
67193;SDS011;54121;53.508;49.422;2022-12-20T14:46:31;18.05;;;9.35;;
67193;SDS011;54121;53.508;49.422;2022-12-20T14:49:16;16.50;;;8.80;;
67193;SDS011;54121;53.508;49.422;2022-12-20T14:51:51;17.65;;;9.30;;
67193;SDS011;54121;53.508;49.422;2022-12-20T14:54:29;19.83;;;10.65;;
67193;SDS011;54121;53.508;49.422;2022-12-20T14:56:56;15.70;;;9.02;;
67193;SDS011;54121;53.508;49.422;2022-12-20T14:59:27;19.58;;;11.13;;
67193;SDS011;54121;53.508;49.422;2022-12-20T15:01:56;20.00;;;10.45;;
67193;SDS011;54121;53.508;49.422;2022-12-20T15:04:28;20.70;;;11.00;;
67193;SDS011;54121;53.508;49.422;2022-12-20T15:06:58;18.90;;;9.40;;
67193;SDS011;54121;53.508;49.422;2022-12-20T15:09:25;17.13;;;10.77;;
67193;SDS011;54121;53.508;49.422;2022-12-20T15:11:52;19.67;;;11.32;;
67193;SDS011;54121;53.508;49.422;2022-12-20T15:14:36;17.30;;;8.95;;
67193;SDS011;54121;53.508;49.422;2022-12-20T15:17:08;20.35;;;10.05;;
67193;SDS011;54121;53.508;49.422;2022-12-20T15:19:36;19.85;;;11.10;;
67193;SDS011;54121;53.508;49.422;2022-12-20T15:22:03;16.73;;;9.38;;
67193;SDS011;54121;53.508;49.422;2022-12-20T15:24:30;19.23;;;10.25;;
67193;SDS011;54121;53.508;49.422;2022-12-20T15:26:57;17.92;;;11.07;;
67193;SDS011;54121;53.508;49.422;2022-12-20T15:29:24;17.13;;;9.63;;
67193;SDS011;54121;53.508;49.422;2022-12-20T15:31:56;18.00;;;9.50;;
67193;SDS011;54121;53.508;49.422;2022-12-20T15:34:34;18.92;;;10.23;;
67193;SDS011;54121;53.508;49.422;2022-12-20T15:37:03;21.85;;;10.68;;
67193;SDS011;54121;53.508;49.422;2022-12-20T15:39:31;13.10;;;8.18;;
67193;SDS011;54121;53.508;49.422;2022-12-20T15:41:59;18.40;;;9.45;;
67193;SDS011;54121;53.508;49.422;2022-12-20T15:44:29;21.27;;;11.23;;
67193;SDS011;54121;53.508;49.422;2022-12-20T15:46:56;21.20;;;10.32;;
67193;SDS011;54121;53.508;49.422;2022-12-20T15:49:24;17.52;;;10.73;;
67193;SDS011;54121;53.508;49.422;2022-12-20T15:51:53;13.70;;;8.38;;
67193;SDS011;54121;53.508;49.422;2022-12-20T15:54:28;20.67;;;12.15;;
67193;SDS011;54121;53.508;49.422;2022-12-20T15:56:58;21.95;;;10.13;;
67193;SDS011;54121;53.508;49.422;2022-12-20T15:59:28;13.68;;;7.15;;
67193;SDS011;54121;53.508;49.422;2022-12-20T16:01:54;13.73;;;8.30;;
67193;SDS011;54121;53.508;49.422;2022-12-20T16:04:21;22.08;;;8.68;;
67193;SDS011;54121;53.508;49.422;2022-12-20T16:06:49;12.60;;;7.10;;
67193;SDS011;54121;53.508;49.422;2022-12-20T16:09:19;17.33;;;8.63;;
67193;SDS011;54121;53.508;49.422;2022-12-20T16:11:46;14.60;;;7.63;;
67193;SDS011;54121;53.508;49.422;2022-12-20T16:14:17;21.58;;;10.07;;
67193;SDS011;54121;53.508;49.422;2022-12-20T16:16:48;13.13;;;8.30;;
67193;SDS011;54121;53.508;49.422;2022-12-20T16:19:15;18.08;;;8.57;;
67193;SDS011;54121;53.508;49.422;2022-12-20T16:21:48;17.33;;;9.27;;
67193;SDS011;54121;53.508;49.422;2022-12-20T16:24:17;20.92;;;10.27;;
67193;SDS011;54121;53.508;49.422;2022-12-20T16:26:47;17.05;;;10.10;;
67193;SDS011;54121;53.508;49.422;2022-12-20T16:29:14;16.15;;;8.57;;
67193;SDS011;54121;53.508;49.422;2022-12-20T16:31:41;23.00;;;10.07;;
67193;SDS011;54121;53.508;49.422;2022-12-20T16:34:16;17.08;;;9.13;;
67193;SDS011;54121;53.508;49.422;2022-12-20T16:36:43;18.27;;;7.95;;
67193;SDS011;54121;53.508;49.422;2022-12-20T16:39:11;12.32;;;6.35;;
67193;SDS011;54121;53.508;49.422;2022-12-20T16:41:38;15.35;;;7.75;;
67193;SDS011;54121;53.508;49.422;2022-12-20T16:44:09;14.13;;;7.75;;
67193;SDS011;54121;53.508;49.422;2022-12-20T16:46:39;15.38;;;5.93;;
67193;SDS011;54121;53.508;49.422;2022-12-20T16:49:05;16.88;;;10.35;;
67193;SDS011;54121;53.508;49.422;2022-12-20T16:51:44;14.77;;;8.43;;
67193;SDS011;54121;53.508;49.422;2022-12-20T16:54:13;14.50;;;7.07;;
67193;SDS011;54121;53.508;49.422;2022-12-20T16:56:44;15.73;;;9.75;;
67193;SDS011;54121;53.508;49.422;2022-12-20T16:59:16;9.90;;;5.63;;
67193;SDS011;54121;53.508;49.422;2022-12-20T17:01:43;14.82;;;8.00;;
67193;SDS011;54121;53.508;49.422;2022-12-20T17:04:12;13.48;;;7.57;;
67193;SDS011;54121;53.508;49.422;2022-12-20T17:06:40;17.02;;;9.07;;